Aviation Digital Data Service (ADDS)

Output produced by METARs form (1825 UTC 16 August 2018)
found at http://www.aviationweather.gov/adds/metars/
 
BKPR 161830Z 36005KT 9999 FEW030CB SCT040 BKN080 20/13 Q1016 NOSIG
TAF BKPR 161730Z 1618/1718 02010KT 9999 SCT040 SCT080 
     TEMPO 1618/1621 5000 -TSRA SCT030CB